sensor_id;sensor_type;location;lat;lon;timestamp;P1;durP1;ratioP1;P2;durP2;ratioP2
42964;SDS011;28604;51.204;22.552;2023-08-20T00:00:29;14.70;;;12.05;;
42964;SDS011;28604;51.204;22.552;2023-08-20T00:03:16;15.13;;;11.65;;
42964;SDS011;28604;51.204;22.552;2023-08-20T00:05:41;15.35;;;11.73;;
42964;SDS011;28604;51.204;22.552;2023-08-20T00:08:08;13.15;;;11.73;;
42964;SDS011;28604;51.204;22.552;2023-08-20T00:10:34;13.35;;;11.70;;
42964;SDS011;28604;51.204;22.552;2023-08-20T00:13:00;13.55;;;11.18;;
42964;SDS011;28604;51.204;22.552;2023-08-20T00:15:26;14.13;;;11.70;;
42964;SDS011;28604;51.204;22.552;2023-08-20T00:17:53;13.60;;;11.75;;
42964;SDS011;28604;51.204;22.552;2023-08-20T00:20:21;18.77;;;11.60;;
42964;SDS011;28604;51.204;22.552;2023-08-20T00:22:47;13.60;;;12.25;;
42964;SDS011;28604;51.204;22.552;2023-08-20T00:25:14;14.88;;;13.15;;
42964;SDS011;28604;51.204;22.552;2023-08-20T00:27:42;17.20;;;13.63;;
42964;SDS011;28604;51.204;22.552;2023-08-20T00:30:09;17.45;;;12.68;;
42964;SDS011;28604;51.204;22.552;2023-08-20T00:32:36;14.35;;;12.90;;
42964;SDS011;28604;51.204;22.552;2023-08-20T00:35:03;16.35;;;13.40;;
42964;SDS011;28604;51.204;22.552;2023-08-20T00:37:30;15.60;;;14.00;;
42964;SDS011;28604;51.204;22.552;2023-08-20T00:39:56;15.43;;;13.57;;
42964;SDS011;28604;51.204;22.552;2023-08-20T00:42:25;15.55;;;14.02;;
42964;SDS011;28604;51.204;22.552;2023-08-20T00:44:51;15.52;;;13.90;;
42964;SDS011;28604;51.204;22.552;2023-08-20T00:47:18;15.70;;;13.23;;
42964;SDS011;28604;51.204;22.552;2023-08-20T00:49:45;21.90;;;13.90;;
42964;SDS011;28604;51.204;22.552;2023-08-20T00:52:12;16.63;;;14.38;;
42964;SDS011;28604;51.204;22.552;2023-08-20T00:54:40;20.80;;;15.07;;
42964;SDS011;28604;51.204;22.552;2023-08-20T00:57:07;16.13;;;14.55;;
42964;SDS011;28604;51.204;22.552;2023-08-20T00:59:33;15.23;;;13.45;;
42964;SDS011;28604;51.204;22.552;2023-08-20T01:02:00;17.35;;;12.00;;
42964;SDS011;28604;51.204;22.552;2023-08-20T01:04:27;13.77;;;12.35;;
42964;SDS011;28604;51.204;22.552;2023-08-20T01:12:34;14.48;;;13.00;;
42964;SDS011;28604;51.204;22.552;2023-08-20T01:15:01;15.70;;;12.48;;
42964;SDS011;28604;51.204;22.552;2023-08-20T01:17:27;15.60;;;11.82;;
42964;SDS011;28604;51.204;22.552;2023-08-20T01:19:54;15.15;;;12.05;;
42964;SDS011;28604;51.204;22.552;2023-08-20T01:22:24;15.45;;;13.65;;
42964;SDS011;28604;51.204;22.552;2023-08-20T01:25:36;14.50;;;11.75;;
42964;SDS011;28604;51.204;22.552;2023-08-20T01:28:30;13.50;;;12.15;;
42964;SDS011;28604;51.204;22.552;2023-08-20T01:30:57;15.02;;;12.65;;
42964;SDS011;28604;51.204;22.552;2023-08-20T01:33:24;18.42;;;12.65;;
42964;SDS011;28604;51.204;22.552;2023-08-20T01:35:54;15.20;;;12.20;;
42964;SDS011;28604;51.204;22.552;2023-08-20T01:38:20;14.75;;;13.27;;
42964;SDS011;28604;51.204;22.552;2023-08-20T01:40:47;18.73;;;13.52;;
42964;SDS011;28604;51.204;22.552;2023-08-20T01:43:14;15.65;;;12.70;;
42964;SDS011;28604;51.204;22.552;2023-08-20T01:45:40;13.25;;;11.50;;
42964;SDS011;28604;51.204;22.552;2023-08-20T01:48:07;15.13;;;11.57;;
42964;SDS011;28604;51.204;22.552;2023-08-20T01:50:33;17.15;;;12.13;;
42964;SDS011;28604;51.204;22.552;2023-08-20T01:53:00;14.40;;;12.60;;
42964;SDS011;28604;51.204;22.552;2023-08-20T01:55:28;13.20;;;11.50;;
42964;SDS011;28604;51.204;22.552;2023-08-20T01:57:55;14.15;;;12.07;;
42964;SDS011;28604;51.204;22.552;2023-08-20T02:00:20;13.07;;;11.88;;
42964;SDS011;28604;51.204;22.552;2023-08-20T02:02:46;12.82;;;11.52;;
42964;SDS011;28604;51.204;22.552;2023-08-20T02:05:12;15.60;;;11.90;;
42964;SDS011;28604;51.204;22.552;2023-08-20T02:07:38;12.48;;;10.73;;
42964;SDS011;28604;51.204;22.552;2023-08-20T02:10:04;13.90;;;11.20;;
42964;SDS011;28604;51.204;22.552;2023-08-20T02:12:31;16.77;;;11.00;;
42964;SDS011;28604;51.204;22.552;2023-08-20T02:14:56;12.73;;;11.52;;
42964;SDS011;28604;51.204;22.552;2023-08-20T02:17:24;18.23;;;12.40;;
42964;SDS011;28604;51.204;22.552;2023-08-20T02:19:50;16.33;;;12.32;;
42964;SDS011;28604;51.204;22.552;2023-08-20T02:22:16;12.50;;;11.30;;
42964;SDS011;28604;51.204;22.552;2023-08-20T02:24:42;13.60;;;12.15;;
42964;SDS011;28604;51.204;22.552;2023-08-20T02:27:08;14.45;;;12.32;;
42964;SDS011;28604;51.204;22.552;2023-08-20T02:29:34;18.25;;;12.43;;
42964;SDS011;28604;51.204;22.552;2023-08-20T02:32:00;14.05;;;12.52;;
42964;SDS011;28604;51.204;22.552;2023-08-20T02:34:26;13.35;;;11.73;;
42964;SDS011;28604;51.204;22.552;2023-08-20T02:36:52;14.90;;;11.52;;
42964;SDS011;28604;51.204;22.552;2023-08-20T02:39:18;13.45;;;12.07;;
42964;SDS011;28604;51.204;22.552;2023-08-20T02:41:45;16.02;;;11.80;;
42964;SDS011;28604;51.204;22.552;2023-08-20T02:44:11;15.48;;;12.48;;
42964;SDS011;28604;51.204;22.552;2023-08-20T02:46:37;20.73;;;12.80;;
42964;SDS011;28604;51.204;22.552;2023-08-20T02:57:23;13.35;;;12.07;;
42964;SDS011;28604;51.204;22.552;2023-08-20T02:59:50;14.38;;;11.90;;
42964;SDS011;28604;51.204;22.552;2023-08-20T03:02:16;15.48;;;11.35;;
42964;SDS011;28604;51.204;22.552;2023-08-20T03:04:43;13.40;;;11.98;;
42964;SDS011;28604;51.204;22.552;2023-08-20T03:07:09;14.85;;;12.15;;
42964;SDS011;28604;51.204;22.552;2023-08-20T03:09:35;17.92;;;13.50;;
42964;SDS011;28604;51.204;22.552;2023-08-20T03:12:00;15.90;;;12.93;;
42964;SDS011;28604;51.204;22.552;2023-08-20T03:14:26;13.98;;;12.52;;
42964;SDS011;28604;51.204;22.552;2023-08-20T03:16:52;22.90;;;13.45;;
42964;SDS011;28604;51.204;22.552;2023-08-20T03:19:18;16.02;;;12.90;;
42964;SDS011;28604;51.204;22.552;2023-08-20T03:21:44;14.02;;;12.70;;
42964;SDS011;28604;51.204;22.552;2023-08-20T03:24:10;14.70;;;13.15;;
42964;SDS011;28604;51.204;22.552;2023-08-20T03:26:36;17.98;;;13.10;;
42964;SDS011;28604;51.204;22.552;2023-08-20T03:29:02;17.85;;;12.77;;
42964;SDS011;28604;51.204;22.552;2023-08-20T03:31:28;18.55;;;13.73;;
42964;SDS011;28604;51.204;22.552;2023-08-20T03:33:55;13.80;;;12.38;;
42964;SDS011;28604;51.204;22.552;2023-08-20T03:36:20;15.45;;;12.30;;
42964;SDS011;28604;51.204;22.552;2023-08-20T03:38:46;18.88;;;13.43;;
42964;SDS011;28604;51.204;22.552;2023-08-20T03:41:12;21.65;;;13.02;;
42964;SDS011;28604;51.204;22.552;2023-08-20T03:43:39;15.43;;;13.18;;
42964;SDS011;28604;51.204;22.552;2023-08-20T03:46:05;17.80;;;12.95;;
42964;SDS011;28604;51.204;22.552;2023-08-20T03:48:31;14.65;;;13.05;;
42964;SDS011;28604;51.204;22.552;2023-08-20T03:50:57;16.50;;;12.88;;
42964;SDS011;28604;51.204;22.552;2023-08-20T03:53:23;19.23;;;13.45;;
42964;SDS011;28604;51.204;22.552;2023-08-20T03:55:49;14.10;;;12.73;;
42964;SDS011;28604;51.204;22.552;2023-08-20T03:58:16;15.88;;;12.55;;
42964;SDS011;28604;51.204;22.552;2023-08-20T04:00:42;17.90;;;13.07;;
42964;SDS011;28604;51.204;22.552;2023-08-20T04:03:09;14.30;;;12.82;;
42964;SDS011;28604;51.204;22.552;2023-08-20T04:05:38;15.52;;;13.95;;
42964;SDS011;28604;51.204;22.552;2023-08-20T04:08:05;13.60;;;12.38;;
42964;SDS011;28604;51.204;22.552;2023-08-20T04:10:31;13.20;;;12.02;;
42964;SDS011;28604;51.204;22.552;2023-08-20T04:12:58;15.88;;;12.40;;
42964;SDS011;28604;51.204;22.552;2023-08-20T04:15:24;14.98;;;12.05;;
42964;SDS011;28604;51.204;22.552;2023-08-20T04:17:50;14.05;;;11.80;;
42964;SDS011;28604;51.204;22.552;2023-08-20T04:20:16;14.48;;;11.52;;
42964;SDS011;28604;51.204;22.552;2023-08-20T04:22:42;14.15;;;11.95;;
42964;SDS011;28604;51.204;22.552;2023-08-20T04:25:08;15.35;;;12.60;;
42964;SDS011;28604;51.204;22.552;2023-08-20T04:27:34;15.48;;;12.93;;
42964;SDS011;28604;51.204;22.552;2023-08-20T04:30:00;14.70;;;13.10;;
42964;SDS011;28604;51.204;22.552;2023-08-20T04:32:27;17.65;;;12.63;;
42964;SDS011;28604;51.204;22.552;2023-08-20T04:34:54;19.80;;;14.15;;
42964;SDS011;28604;51.204;22.552;2023-08-20T04:37:21;19.45;;;13.27;;
42964;SDS011;28604;51.204;22.552;2023-08-20T04:39:47;18.85;;;14.57;;
42964;SDS011;28604;51.204;22.552;2023-08-20T04:42:14;15.80;;;13.43;;
42964;SDS011;28604;51.204;22.552;2023-08-20T04:44:40;15.25;;;13.80;;
42964;SDS011;28604;51.204;22.552;2023-08-20T04:47:10;14.63;;;13.23;;
42964;SDS011;28604;51.204;22.552;2023-08-20T04:49:39;14.38;;;12.90;;
42964;SDS011;28604;51.204;22.552;2023-08-20T04:52:06;14.52;;;12.52;;
42964;SDS011;28604;51.204;22.552;2023-08-20T04:54:31;21.05;;;13.63;;
42964;SDS011;28604;51.204;22.552;2023-08-20T04:56:57;14.65;;;13.15;;
42964;SDS011;28604;51.204;22.552;2023-08-20T04:59:23;20.40;;;12.75;;
42964;SDS011;28604;51.204;22.552;2023-08-20T05:02:12;26.88;;;12.73;;
42964;SDS011;28604;51.204;22.552;2023-08-20T05:04:48;16.75;;;13.20;;
42964;SDS011;28604;51.204;22.552;2023-08-20T05:07:14;13.80;;;12.43;;
42964;SDS011;28604;51.204;22.552;2023-08-20T05:09:40;17.40;;;13.82;;
42964;SDS011;28604;51.204;22.552;2023-08-20T05:12:06;17.30;;;14.32;;
42964;SDS011;28604;51.204;22.552;2023-08-20T05:14:33;17.15;;;14.18;;
42964;SDS011;28604;51.204;22.552;2023-08-20T05:19:55;16.05;;;14.38;;
42964;SDS011;28604;51.204;22.552;2023-08-20T05:22:21;15.65;;;13.90;;
42964;SDS011;28604;51.204;22.552;2023-08-20T05:24:48;16.58;;;14.40;;
42964;SDS011;28604;51.204;22.552;2023-08-20T05:27:15;16.05;;;14.40;;
42964;SDS011;28604;51.204;22.552;2023-08-20T05:29:48;16.50;;;14.45;;
42964;SDS011;28604;51.204;22.552;2023-08-20T05:32:15;16.73;;;13.85;;
42964;SDS011;28604;51.204;22.552;2023-08-20T05:34:41;16.90;;;14.95;;
42964;SDS011;28604;51.204;22.552;2023-08-20T05:37:08;16.77;;;14.95;;
42964;SDS011;28604;51.204;22.552;2023-08-20T05:39:40;18.48;;;15.32;;
42964;SDS011;28604;51.204;22.552;2023-08-20T05:42:08;16.38;;;14.50;;
42964;SDS011;28604;51.204;22.552;2023-08-20T05:44:34;18.83;;;16.13;;
42964;SDS011;28604;51.204;22.552;2023-08-20T05:47:02;16.08;;;14.65;;
42964;SDS011;28604;51.204;22.552;2023-08-20T05:49:28;17.40;;;15.27;;
42964;SDS011;28604;51.204;22.552;2023-08-20T05:51:55;20.05;;;16.42;;
42964;SDS011;28604;51.204;22.552;2023-08-20T05:54:21;20.98;;;15.85;;
42964;SDS011;28604;51.204;22.552;2023-08-20T05:56:50;17.38;;;15.48;;
42964;SDS011;28604;51.204;22.552;2023-08-20T05:59:16;17.23;;;15.55;;
42964;SDS011;28604;51.204;22.552;2023-08-20T06:01:42;16.92;;;14.93;;
42964;SDS011;28604;51.204;22.552;2023-08-20T06:04:08;15.82;;;14.20;;
42964;SDS011;28604;51.204;22.552;2023-08-20T06:06:35;16.10;;;14.60;;
42964;SDS011;28604;51.204;22.552;2023-08-20T06:09:01;16.27;;;14.70;;
42964;SDS011;28604;51.204;22.552;2023-08-20T06:11:27;15.95;;;14.25;;
42964;SDS011;28604;51.204;22.552;2023-08-20T06:13:52;15.63;;;14.02;;
42964;SDS011;28604;51.204;22.552;2023-08-20T06:16:19;20.50;;;14.70;;
42964;SDS011;28604;51.204;22.552;2023-08-20T06:18:44;16.25;;;14.38;;
42964;SDS011;28604;51.204;22.552;2023-08-20T06:21:11;18.73;;;15.00;;
42964;SDS011;28604;51.204;22.552;2023-08-20T06:23:36;16.00;;;14.25;;
42964;SDS011;28604;51.204;22.552;2023-08-20T06:26:02;14.90;;;13.40;;
42964;SDS011;28604;51.204;22.552;2023-08-20T06:28:28;19.08;;;13.85;;
42964;SDS011;28604;51.204;22.552;2023-08-20T06:30:54;16.83;;;13.15;;
42964;SDS011;28604;51.204;22.552;2023-08-20T06:33:20;14.02;;;12.43;;
42964;SDS011;28604;51.204;22.552;2023-08-20T06:35:46;14.52;;;13.13;;
42964;SDS011;28604;51.204;22.552;2023-08-20T06:38:12;14.25;;;12.07;;
42964;SDS011;28604;51.204;22.552;2023-08-20T06:40:38;14.93;;;13.43;;
42964;SDS011;28604;51.204;22.552;2023-08-20T06:43:04;14.18;;;12.73;;
42964;SDS011;28604;51.204;22.552;2023-08-20T06:45:30;13.98;;;12.88;;
42964;SDS011;28604;51.204;22.552;2023-08-20T06:47:56;15.38;;;13.88;;
42964;SDS011;28604;51.204;22.552;2023-08-20T06:50:23;16.17;;;14.00;;
42964;SDS011;28604;51.204;22.552;2023-08-20T06:52:49;13.55;;;12.15;;
42964;SDS011;28604;51.204;22.552;2023-08-20T06:55:15;16.95;;;13.25;;
42964;SDS011;28604;51.204;22.552;2023-08-20T06:57:41;16.13;;;12.52;;
42964;SDS011;28604;51.204;22.552;2023-08-20T07:00:07;13.07;;;11.75;;
42964;SDS011;28604;51.204;22.552;2023-08-20T07:02:33;18.92;;;12.98;;
42964;SDS011;28604;51.204;22.552;2023-08-20T07:04:59;13.93;;;11.43;;
42964;SDS011;28604;51.204;22.552;2023-08-20T07:07:25;11.38;;;10.40;;
42964;SDS011;28604;51.204;22.552;2023-08-20T07:09:51;16.42;;;12.55;;
42964;SDS011;28604;51.204;22.552;2023-08-20T07:12:16;12.38;;;10.57;;
42964;SDS011;28604;51.204;22.552;2023-08-20T07:14:43;11.60;;;10.57;;
42964;SDS011;28604;51.204;22.552;2023-08-20T07:17:08;12.32;;;11.13;;
42964;SDS011;28604;51.204;22.552;2023-08-20T07:19:36;13.30;;;10.98;;
42964;SDS011;28604;51.204;22.552;2023-08-20T07:22:02;14.02;;;11.32;;
42964;SDS011;28604;51.204;22.552;2023-08-20T07:24:28;14.07;;;11.98;;
42964;SDS011;28604;51.204;22.552;2023-08-20T07:26:55;12.70;;;11.38;;
42964;SDS011;28604;51.204;22.552;2023-08-20T07:29:26;12.82;;;11.00;;
42964;SDS011;28604;51.204;22.552;2023-08-20T07:31:55;11.57;;;10.52;;
42964;SDS011;28604;51.204;22.552;2023-08-20T07:34:22;11.25;;;9.88;;
42964;SDS011;28604;51.204;22.552;2023-08-20T07:36:48;13.98;;;11.48;;
42964;SDS011;28604;51.204;22.552;2023-08-20T07:39:14;11.40;;;8.68;;
42964;SDS011;28604;51.204;22.552;2023-08-20T07:41:42;11.45;;;10.20;;
42964;SDS011;28604;51.204;22.552;2023-08-20T07:44:08;10.43;;;9.32;;
42964;SDS011;28604;51.204;22.552;2023-08-20T07:46:34;12.13;;;10.07;;
42964;SDS011;28604;51.204;22.552;2023-08-20T07:49:00;11.65;;;8.55;;
42964;SDS011;28604;51.204;22.552;2023-08-20T07:51:26;9.35;;;8.65;;
42964;SDS011;28604;51.204;22.552;2023-08-20T07:53:52;12.25;;;8.88;;
42964;SDS011;28604;51.204;22.552;2023-08-20T07:56:18;9.98;;;9.05;;
42964;SDS011;28604;51.204;22.552;2023-08-20T07:58:44;12.18;;;9.00;;
42964;SDS011;28604;51.204;22.552;2023-08-20T08:01:10;12.73;;;9.30;;
42964;SDS011;28604;51.204;22.552;2023-08-20T08:03:36;11.70;;;9.27;;
42964;SDS011;28604;51.204;22.552;2023-08-20T08:06:02;8.73;;;8.23;;
42964;SDS011;28604;51.204;22.552;2023-08-20T08:08:28;10.02;;;9.13;;
42964;SDS011;28604;51.204;22.552;2023-08-20T08:10:54;8.55;;;7.95;;
42964;SDS011;28604;51.204;22.552;2023-08-20T08:13:21;10.73;;;9.13;;
42964;SDS011;28604;51.204;22.552;2023-08-20T08:15:48;12.85;;;10.15;;
42964;SDS011;28604;51.204;22.552;2023-08-20T08:18:14;9.68;;;8.50;;
42964;SDS011;28604;51.204;22.552;2023-08-20T08:20:41;8.43;;;7.60;;
42964;SDS011;28604;51.204;22.552;2023-08-20T08:23:07;12.20;;;8.65;;
42964;SDS011;28604;51.204;22.552;2023-08-20T08:25:33;8.15;;;7.30;;
42964;SDS011;28604;51.204;22.552;2023-08-20T08:27:59;9.43;;;8.65;;
42964;SDS011;28604;51.204;22.552;2023-08-20T08:30:24;7.85;;;7.25;;
42964;SDS011;28604;51.204;22.552;2023-08-20T08:32:50;8.80;;;7.03;;
42964;SDS011;28604;51.204;22.552;2023-08-20T08:35:16;7.90;;;7.18;;
42964;SDS011;28604;51.204;22.552;2023-08-20T08:37:43;8.55;;;7.55;;
42964;SDS011;28604;51.204;22.552;2023-08-20T08:40:09;8.68;;;7.88;;
42964;SDS011;28604;51.204;22.552;2023-08-20T08:42:35;7.85;;;7.35;;
42964;SDS011;28604;51.204;22.552;2023-08-20T08:45:01;9.63;;;6.85;;
42964;SDS011;28604;51.204;22.552;2023-08-20T08:47:28;9.30;;;7.65;;
42964;SDS011;28604;51.204;22.552;2023-08-20T08:49:55;13.10;;;7.07;;
42964;SDS011;28604;51.204;22.552;2023-08-20T08:52:22;7.82;;;7.05;;
42964;SDS011;28604;51.204;22.552;2023-08-20T08:54:48;8.00;;;7.00;;
42964;SDS011;28604;51.204;22.552;2023-08-20T08:57:15;6.35;;;5.70;;
42964;SDS011;28604;51.204;22.552;2023-08-20T08:59:41;9.75;;;8.30;;
42964;SDS011;28604;51.204;22.552;2023-08-20T09:02:08;9.80;;;6.53;;
42964;SDS011;28604;51.204;22.552;2023-08-20T09:04:41;12.15;;;7.63;;
42964;SDS011;28604;51.204;22.552;2023-08-20T09:07:11;7.07;;;6.38;;
42964;SDS011;28604;51.204;22.552;2023-08-20T09:09:41;7.38;;;5.47;;
42964;SDS011;28604;51.204;22.552;2023-08-20T09:14:51;5.60;;;5.20;;
42964;SDS011;28604;51.204;22.552;2023-08-20T09:17:17;5.38;;;4.90;;
42964;SDS011;28604;51.204;22.552;2023-08-20T09:19:45;5.95;;;5.45;;
42964;SDS011;28604;51.204;22.552;2023-08-20T09:22:12;8.38;;;5.10;;
42964;SDS011;28604;51.204;22.552;2023-08-20T09:24:39;7.57;;;4.38;;
42964;SDS011;28604;51.204;22.552;2023-08-20T09:27:14;5.03;;;4.50;;
42964;SDS011;28604;51.204;22.552;2023-08-20T09:32:14;4.97;;;4.60;;
42964;SDS011;28604;51.204;22.552;2023-08-20T09:34:41;5.22;;;4.70;;
42964;SDS011;28604;51.204;22.552;2023-08-20T09:37:08;4.78;;;4.43;;
42964;SDS011;28604;51.204;22.552;2023-08-20T09:39:35;4.90;;;4.53;;
42964;SDS011;28604;51.204;22.552;2023-08-20T09:42:01;5.80;;;5.30;;
42964;SDS011;28604;51.204;22.552;2023-08-20T09:44:35;5.72;;;4.63;;
42964;SDS011;28604;51.204;22.552;2023-08-20T09:47:06;5.28;;;4.85;;
42964;SDS011;28604;51.204;22.552;2023-08-20T09:49:39;4.93;;;4.50;;
42964;SDS011;28604;51.204;22.552;2023-08-20T09:52:10;7.07;;;4.82;;
42964;SDS011;28604;51.204;22.552;2023-08-20T10:00:01;4.70;;;4.45;;
42964;SDS011;28604;51.204;22.552;2023-08-20T10:02:39;4.75;;;4.47;;
42964;SDS011;28604;51.204;22.552;2023-08-20T10:05:05;4.57;;;4.32;;
42964;SDS011;28604;51.204;22.552;2023-08-20T10:07:33;7.93;;;5.10;;
42964;SDS011;28604;51.204;22.552;2023-08-20T10:10:01;5.00;;;4.65;;
42964;SDS011;28604;51.204;22.552;2023-08-20T10:12:33;4.60;;;4.30;;
42964;SDS011;28604;51.204;22.552;2023-08-20T10:15:01;9.35;;;4.80;;
42964;SDS011;28604;51.204;22.552;2023-08-20T10:17:32;5.38;;;4.95;;
42964;SDS011;28604;51.204;22.552;2023-08-20T10:19:58;5.70;;;5.13;;
42964;SDS011;28604;51.204;22.552;2023-08-20T10:22:37;5.43;;;5.00;;
42964;SDS011;28604;51.204;22.552;2023-08-20T10:25:07;4.85;;;4.45;;
42964;SDS011;28604;51.204;22.552;2023-08-20T10:27:37;5.30;;;4.82;;
42964;SDS011;28604;51.204;22.552;2023-08-20T10:30:16;5.80;;;5.07;;
42964;SDS011;28604;51.204;22.552;2023-08-20T10:32:50;4.57;;;4.18;;
42964;SDS011;28604;51.204;22.552;2023-08-20T10:40:59;5.25;;;3.90;;
42964;SDS011;28604;51.204;22.552;2023-08-20T10:43:36;4.70;;;3.85;;
42964;SDS011;28604;51.204;22.552;2023-08-20T10:48:32;3.92;;;3.72;;
42964;SDS011;28604;51.204;22.552;2023-08-20T10:51:12;4.53;;;3.72;;
42964;SDS011;28604;51.204;22.552;2023-08-20T10:53:43;3.95;;;3.65;;
42964;SDS011;28604;51.204;22.552;2023-08-20T10:56:15;4.05;;;3.38;;
42964;SDS011;28604;51.204;22.552;2023-08-20T10:58:42;4.13;;;3.53;;
42964;SDS011;28604;51.204;22.552;2023-08-20T11:01:15;5.10;;;4.63;;
42964;SDS011;28604;51.204;22.552;2023-08-20T11:03:46;3.63;;;3.25;;
42964;SDS011;28604;51.204;22.552;2023-08-20T11:06:14;3.60;;;3.40;;
42964;SDS011;28604;51.204;22.552;2023-08-20T11:08:40;3.28;;;3.08;;
42964;SDS011;28604;51.204;22.552;2023-08-20T11:11:07;4.60;;;3.47;;
42964;SDS011;28604;51.204;22.552;2023-08-20T11:13:33;4.35;;;3.50;;
42964;SDS011;28604;51.204;22.552;2023-08-20T11:16:01;4.65;;;3.95;;
42964;SDS011;28604;51.204;22.552;2023-08-20T11:18:28;4.32;;;4.03;;
42964;SDS011;28604;51.204;22.552;2023-08-20T11:20:56;4.05;;;3.72;;
42964;SDS011;28604;51.204;22.552;2023-08-20T11:23:23;3.92;;;3.40;;
42964;SDS011;28604;51.204;22.552;2023-08-20T11:25:50;3.80;;;3.60;;
42964;SDS011;28604;51.204;22.552;2023-08-20T11:28:16;3.60;;;3.40;;
42964;SDS011;28604;51.204;22.552;2023-08-20T11:30:42;4.18;;;3.95;;
42964;SDS011;28604;51.204;22.552;2023-08-20T11:33:08;4.75;;;4.25;;
42964;SDS011;28604;51.204;22.552;2023-08-20T11:35:35;5.57;;;4.00;;
42964;SDS011;28604;51.204;22.552;2023-08-20T11:38:02;4.18;;;4.05;;
42964;SDS011;28604;51.204;22.552;2023-08-20T11:40:29;6.10;;;3.67;;
42964;SDS011;28604;51.204;22.552;2023-08-20T11:42:55;5.07;;;3.83;;
42964;SDS011;28604;51.204;22.552;2023-08-20T11:45:21;6.93;;;3.85;;
42964;SDS011;28604;51.204;22.552;2023-08-20T11:47:47;5.78;;;4.25;;
42964;SDS011;28604;51.204;22.552;2023-08-20T11:50:13;3.97;;;3.78;;
42964;SDS011;28604;51.204;22.552;2023-08-20T11:52:39;4.53;;;3.90;;
42964;SDS011;28604;51.204;22.552;2023-08-20T11:55:05;4.50;;;4.13;;
42964;SDS011;28604;51.204;22.552;2023-08-20T11:57:32;4.63;;;4.22;;
42964;SDS011;28604;51.204;22.552;2023-08-20T12:00:02;5.05;;;3.97;;
42964;SDS011;28604;51.204;22.552;2023-08-20T12:02:40;4.13;;;3.85;;
42964;SDS011;28604;51.204;22.552;2023-08-20T12:05:10;4.43;;;4.07;;
42964;SDS011;28604;51.204;22.552;2023-08-20T12:07:36;4.88;;;4.47;;
42964;SDS011;28604;51.204;22.552;2023-08-20T12:10:20;4.72;;;4.47;;
42964;SDS011;28604;51.204;22.552;2023-08-20T12:12:48;5.95;;;4.90;;
42964;SDS011;28604;51.204;22.552;2023-08-20T12:15:14;5.43;;;4.85;;
42964;SDS011;28604;51.204;22.552;2023-08-20T12:17:40;4.70;;;4.32;;
42964;SDS011;28604;51.204;22.552;2023-08-20T12:20:06;4.72;;;4.30;;
42964;SDS011;28604;51.204;22.552;2023-08-20T12:22:38;8.48;;;5.82;;
42964;SDS011;28604;51.204;22.552;2023-08-20T12:25:05;7.50;;;6.85;;
42964;SDS011;28604;51.204;22.552;2023-08-20T12:27:33;6.93;;;6.32;;
42964;SDS011;28604;51.204;22.552;2023-08-20T12:29:59;5.97;;;5.53;;
42964;SDS011;28604;51.204;22.552;2023-08-20T12:32:25;5.95;;;5.60;;
42964;SDS011;28604;51.204;22.552;2023-08-20T12:34:51;6.25;;;5.85;;
42964;SDS011;28604;51.204;22.552;2023-08-20T12:37:17;6.43;;;5.50;;
42964;SDS011;28604;51.204;22.552;2023-08-20T12:39:43;6.45;;;5.78;;
42964;SDS011;28604;51.204;22.552;2023-08-20T12:42:09;6.53;;;6.22;;
42964;SDS011;28604;51.204;22.552;2023-08-20T12:44:34;7.78;;;7.13;;
42964;SDS011;28604;51.204;22.552;2023-08-20T12:47:00;14.07;;;12.82;;
42964;SDS011;28604;51.204;22.552;2023-08-20T12:49:26;14.93;;;13.73;;
42964;SDS011;28604;51.204;22.552;2023-08-20T12:51:52;19.20;;;17.70;;
42964;SDS011;28604;51.204;22.552;2023-08-20T12:54:18;22.02;;;20.23;;
42964;SDS011;28604;51.204;22.552;2023-08-20T12:56:44;19.83;;;17.95;;
42964;SDS011;28604;51.204;22.552;2023-08-20T12:59:10;18.52;;;16.83;;
42964;SDS011;28604;51.204;22.552;2023-08-20T13:01:36;18.00;;;16.27;;
42964;SDS011;28604;51.204;22.552;2023-08-20T13:04:02;16.13;;;14.52;;
42964;SDS011;28604;51.204;22.552;2023-08-20T13:06:29;16.52;;;15.00;;
42964;SDS011;28604;51.204;22.552;2023-08-20T13:08:55;17.20;;;15.27;;
42964;SDS011;28604;51.204;22.552;2023-08-20T13:11:22;13.77;;;12.68;;
42964;SDS011;28604;51.204;22.552;2023-08-20T13:13:51;13.90;;;12.52;;
42964;SDS011;28604;51.204;22.552;2023-08-20T13:16:20;11.65;;;10.85;;
42964;SDS011;28604;51.204;22.552;2023-08-20T13:18:46;11.27;;;10.15;;
42964;SDS011;28604;51.204;22.552;2023-08-20T13:21:13;12.05;;;11.13;;
42964;SDS011;28604;51.204;22.552;2023-08-20T13:23:39;10.63;;;9.73;;
42964;SDS011;28604;51.204;22.552;2023-08-20T13:26:06;16.13;;;10.65;;
42964;SDS011;28604;51.204;22.552;2023-08-20T13:28:32;12.15;;;11.18;;
42964;SDS011;28604;51.204;22.552;2023-08-20T13:30:58;10.88;;;9.85;;
42964;SDS011;28604;51.204;22.552;2023-08-20T13:33:24;10.40;;;9.55;;
42964;SDS011;28604;51.204;22.552;2023-08-20T13:35:50;11.98;;;11.02;;
42964;SDS011;28604;51.204;22.552;2023-08-20T13:38:17;10.32;;;9.40;;
42964;SDS011;28604;51.204;22.552;2023-08-20T13:40:45;11.35;;;10.32;;
42964;SDS011;28604;51.204;22.552;2023-08-20T13:43:11;12.13;;;10.98;;
42964;SDS011;28604;51.204;22.552;2023-08-20T13:45:37;10.57;;;9.50;;
42964;SDS011;28604;51.204;22.552;2023-08-20T13:48:03;10.00;;;9.05;;
42964;SDS011;28604;51.204;22.552;2023-08-20T13:50:30;7.50;;;7.05;;
42964;SDS011;28604;51.204;22.552;2023-08-20T13:52:56;8.18;;;7.70;;
42964;SDS011;28604;51.204;22.552;2023-08-20T13:55:22;5.45;;;5.15;;
42964;SDS011;28604;51.204;22.552;2023-08-20T13:57:48;6.90;;;6.22;;
42964;SDS011;28604;51.204;22.552;2023-08-20T14:00:14;7.57;;;6.88;;
42964;SDS011;28604;51.204;22.552;2023-08-20T14:02:40;7.03;;;6.47;;
42964;SDS011;28604;51.204;22.552;2023-08-20T14:05:06;6.72;;;6.30;;
42964;SDS011;28604;51.204;22.552;2023-08-20T14:07:32;7.95;;;6.93;;
42964;SDS011;28604;51.204;22.552;2023-08-20T14:09:58;7.60;;;7.10;;
42964;SDS011;28604;51.204;22.552;2023-08-20T14:12:25;7.82;;;6.78;;
42964;SDS011;28604;51.204;22.552;2023-08-20T14:14:51;7.03;;;6.53;;
42964;SDS011;28604;51.204;22.552;2023-08-20T14:17:17;9.70;;;6.38;;
42964;SDS011;28604;51.204;22.552;2023-08-20T14:19:43;6.32;;;5.93;;
42964;SDS011;28604;51.204;22.552;2023-08-20T14:22:08;8.15;;;6.05;;
42964;SDS011;28604;51.204;22.552;2023-08-20T14:24:35;6.53;;;6.10;;
42964;SDS011;28604;51.204;22.552;2023-08-20T14:27:01;6.60;;;5.60;;
42964;SDS011;28604;51.204;22.552;2023-08-20T14:29:28;7.00;;;6.55;;
42964;SDS011;28604;51.204;22.552;2023-08-20T14:31:54;6.70;;;6.22;;
42964;SDS011;28604;51.204;22.552;2023-08-20T14:34:20;7.00;;;6.53;;
42964;SDS011;28604;51.204;22.552;2023-08-20T14:36:45;7.32;;;6.53;;
42964;SDS011;28604;51.204;22.552;2023-08-20T14:39:11;7.25;;;6.55;;
42964;SDS011;28604;51.204;22.552;2023-08-20T14:41:38;25.98;;;23.17;;
42964;SDS011;28604;51.204;22.552;2023-08-20T14:44:04;6.93;;;6.40;;
42964;SDS011;28604;51.204;22.552;2023-08-20T14:46:30;6.63;;;6.13;;
42964;SDS011;28604;51.204;22.552;2023-08-20T14:48:56;6.68;;;6.05;;
42964;SDS011;28604;51.204;22.552;2023-08-20T14:51:22;5.80;;;5.35;;
42964;SDS011;28604;51.204;22.552;2023-08-20T14:53:48;6.35;;;5.82;;